Time;durP1;ratioP1;P1;durP2;ratioP2;P2;SDS_P1;SDS_P2;PMS_P1;PMS_P2;Temp;Humidity;BMP_temperature;BMP_pressure;BME280_temperature;BME280_humidity;BME280_pressure;Samples;Min_cycle;Max_cycle;Signal;HPM_P1;HPM_P2
2022/03/19 00:00:43;;;;;;;15.05;5.93;;;;;;;7.79;79.31;103257.63;8318312;28;20064;-64
2022/03/19 00:04:43;;;;;;;12.48;4.50;;;;;;;7.74;79.29;103253.31;8317880;28;20047;-64
2022/03/19 00:08:44;;;;;;;13.25;5.25;;;;;;;7.76;79.30;103246.97;8317889;28;20039;-64
2022/03/19 00:12:44;;;;;;;12.77;5.30;;;;;;;7.69;79.46;103245.41;8318156;28;20045;-64
2022/03/19 00:16:46;;;;;;;15.82;5.70;;;;;;;7.66;79.43;103250.91;8316011;28;20045;-64
2022/03/19 00:20:46;;;;;;;13.50;5.63;;;;;;;7.65;79.39;103254.53;8317028;28;20124;-64
2022/03/19 00:24:46;;;;;;;15.77;5.10;;;;;;;7.57;79.62;103247.69;8317585;28;20414;-64
2022/03/19 00:28:47;;;;;;;12.32;5.22;;;;;;;7.51;79.91;103251.44;8316909;28;20095;-64
2022/03/19 00:32:48;;;;;;;15.48;4.72;;;;;;;7.43;80.16;103250.84;8316246;28;20552;-64
2022/03/19 00:36:49;;;;;;;15.80;5.50;;;;;;;7.25;81.08;103242.53;8316035;28;20045;-64
2022/03/19 00:40:51;;;;;;;10.80;4.97;;;;;;;7.19;80.87;103249.00;8316761;28;20045;-64
2022/03/19 00:44:52;;;;;;;9.20;5.13;;;;;;;7.15;81.01;103246.47;8315782;28;20449;-64
2022/03/19 00:48:52;;;;;;;12.43;5.25;;;;;;;7.11;81.20;103245.69;8316783;28;20106;-64
2022/03/19 00:52:53;;;;;;;10.85;5.30;;;;;;;7.09;81.26;103242.19;8317005;28;20087;-64
2022/03/19 00:56:53;;;;;;;11.20;5.30;;;;;;;7.01;81.79;103241.56;8316821;28;20513;-64
2022/03/19 01:00:54;;;;;;;11.63;5.00;;;;;;;6.97;81.85;103237.22;8315554;28;20449;-64
2022/03/19 01:04:54;;;;;;;14.23;5.70;;;;;;;6.90;82.00;103233.00;8316935;28;20575;-64
2022/03/19 01:08:54;;;;;;;12.02;5.20;;;;;;;6.89;82.29;103233.91;8317287;28;20041;-64
2022/03/19 01:12:56;;;;;;;13.63;5.97;;;;;;;6.95;81.80;103228.31;8315528;28;20598;-64
2022/03/19 01:16:57;;;;;;;14.70;5.28;;;;;;;6.93;82.46;103223.94;8315174;28;20040;-64
2022/03/19 01:20:57;;;;;;;12.77;6.15;;;;;;;6.84;82.73;103217.06;8318808;28;20387;-64
2022/03/19 01:25:03;;;;;;;9.55;5.22;;;;;;;6.77;82.67;103218.16;8320524;28;20249;-64
2022/03/19 01:29:04;;;;;;;10.98;5.75;;;;;;;6.70;83.37;103216.63;8345020;28;20498;-64
2022/03/19 01:33:04;;;;;;;11.80;5.10;;;;;;;6.69;83.27;103222.03;8301042;28;20676;-64
2022/03/19 01:37:05;;;;;;;11.82;5.82;;;;;;;6.72;83.13;103211.19;8318945;28;20041;-64
2022/03/19 01:41:05;;;;;;;11.30;6.57;;;;;;;6.62;83.37;103215.13;8321336;28;20490;-64
2022/03/19 01:45:12;;;;;;;12.88;5.72;;;;;;;6.59;83.36;103216.06;8322711;28;20038;-64
2022/03/19 01:49:12;;;;;;;12.07;6.03;;;;;;;6.65;83.78;103217.72;8321834;28;20042;-64
2022/03/19 01:53:13;;;;;;;14.73;5.78;;;;;;;6.56;83.32;103208.13;8320564;28;20044;-64
2022/03/19 01:57:18;;;;;;;10.18;5.72;;;;;;;6.68;83.45;103196.97;8321636;28;20151;-64
2022/03/19 02:01:18;;;;;;;10.88;5.80;;;;;;;6.62;83.30;103191.78;8315705;28;20153;-64
2022/03/19 02:05:21;;;;;;;11.93;5.63;;;;;;;6.61;83.77;103181.97;8320090;28;20037;-64
2022/03/19 02:09:23;;;;;;;11.63;6.07;;;;;;;6.56;83.56;103183.91;8321629;28;20037;-64
2022/03/19 02:13:23;;;;;;;16.73;5.88;;;;;;;6.49;83.76;103182.38;8320404;28;20034;-64
2022/03/19 02:17:24;;;;;;;14.70;5.95;;;;;;;6.39;84.23;103175.53;8321082;28;20037;-64
2022/03/19 02:21:25;;;;;;;12.80;5.80;;;;;;;6.56;84.24;103170.47;8321109;28;20041;-64
2022/03/19 02:25:41;;;;;;;11.93;5.63;;;;;;;6.56;84.11;103169.63;8321399;28;20060;-64
2022/03/19 02:29:41;;;;;;;12.40;5.57;;;;;;;6.44;84.58;103175.41;8320138;28;20034;-64
2022/03/19 02:33:41;;;;;;;16.92;6.57;;;;;;;6.40;84.85;103166.53;8318598;28;20033;-64
2022/03/19 02:37:44;;;;;;;13.45;5.45;;;;;;;6.38;85.19;103164.84;8318742;28;20041;-64
2022/03/19 02:41:48;;;;;;;16.42;5.75;;;;;;;6.33;85.23;103162.31;8320429;28;20103;-64
2022/03/19 02:45:48;;;;;;;14.63;6.60;;;;;;;6.21;85.77;103168.06;8318605;28;20560;-64
2022/03/19 02:49:48;;;;;;;12.05;5.60;;;;;;;5.93;86.96;103156.41;8320095;28;20488;-64
2022/03/19 02:53:49;;;;;;;13.70;5.88;;;;;;;5.90;87.69;103161.88;8320028;28;20073;-64
2022/03/19 02:57:49;;;;;;;15.20;6.30;;;;;;;5.67;88.07;103148.22;8319417;28;20037;-64
2022/03/19 03:01:52;;;;;;;15.35;6.50;;;;;;;5.74;87.66;103150.66;8319924;28;20046;-64
2022/03/19 03:05:53;;;;;;;16.77;6.43;;;;;;;5.84;87.37;103148.63;8318320;28;20037;-64
2022/03/19 03:09:53;;;;;;;17.27;7.07;;;;;;;5.83;87.28;103149.59;8319228;28;20040;-64
2022/03/19 03:13:53;;;;;;;14.88;6.30;;;;;;;5.83;87.80;103146.91;8319425;28;20570;-64
2022/03/19 03:17:54;;;;;;;16.85;6.30;;;;;;;5.66;88.08;103146.47;8318551;28;20032;-64
2022/03/19 03:21:55;;;;;;;14.32;6.13;;;;;;;5.31;89.27;103149.28;8313302;28;20053;-64
2022/03/19 03:25:56;;;;;;;20.58;7.50;;;;;;;5.19;90.92;103145.13;8317010;28;20049;-64
2022/03/19 03:29:57;;;;;;;13.80;6.97;;;;;;;4.88;92.16;103143.34;8317500;28;20037;-64
2022/03/19 03:33:57;;;;;;;15.05;7.03;;;;;;;5.32;92.02;103145.69;8318672;28;20033;-64
2022/03/19 03:37:57;;;;;;;17.80;6.75;;;;;;;5.41;91.46;103135.59;8318605;28;20735;-64
2022/03/19 03:41:58;;;;;;;16.35;7.57;;;;;;;5.18;92.07;103143.38;8317143;28;20456;-64
2022/03/19 03:45:59;;;;;;;10.90;5.97;;;;;;;5.16;92.17;103139.00;8317872;28;20388;-64
2022/03/19 03:49:59;;;;;;;13.35;6.80;;;;;;;5.09;91.79;103138.28;8317935;28;20402;-64
2022/03/19 03:54:00;;;;;;;13.27;6.93;;;;;;;4.91;92.55;103132.53;8317293;28;20383;-64
2022/03/19 03:58:01;;;;;;;20.00;6.70;;;;;;;4.67;92.88;103133.19;8317536;28;20047;-64
2022/03/19 04:02:01;;;;;;;12.95;6.50;;;;;;;4.43;93.99;103128.44;8317945;28;20040;-64
2022/03/19 04:06:02;;;;;;;13.38;6.13;;;;;;;4.24;94.54;103127.97;8318054;28;20044;-64
2022/03/19 04:10:03;;;;;;;13.95;6.78;;;;;;;4.11;95.40;103125.66;8317755;28;20041;-64
2022/03/19 04:14:03;;;;;;;13.73;7.00;;;;;;;4.17;96.22;103123.69;8316190;28;20048;-64
2022/03/19 04:18:04;;;;;;;18.23;6.88;;;;;;;4.24;96.37;103116.41;8316954;28;20037;-64
2022/03/19 04:22:04;;;;;;;13.80;7.13;;;;;;;4.24;95.79;103114.59;8317263;28;20049;-64
2022/03/19 04:26:05;;;;;;;11.68;6.43;;;;;;;4.19;95.65;103113.84;8316124;28;20037;-64
2022/03/19 04:30:06;;;;;;;11.73;6.85;;;;;;;4.06;96.20;103115.91;8317581;28;20044;-64
2022/03/19 04:34:06;;;;;;;20.35;7.20;;;;;;;3.43;97.50;103109.34;8317814;28;20044;-64
2022/03/19 04:38:10;;;;;;;13.73;6.82;;;;;;;3.29;97.97;103114.06;8316748;28;20348;-64
2022/03/19 04:42:10;;;;;;;15.00;7.10;;;;;;;3.05;99.90;103106.53;8315605;28;20530;-64
2022/03/19 04:46:11;;;;;;;14.65;7.03;;;;;;;2.84;100.00;103106.94;8314138;28;20551;-64
2022/03/19 04:50:11;;;;;;;16.08;7.30;;;;;;;2.97;100.00;103103.16;8317241;28;20427;-64
2022/03/19 04:54:12;;;;;;;16.85;7.55;;;;;;;3.25;100.00;103104.38;8318234;28;20040;-64
2022/03/19 04:58:12;;;;;;;19.08;8.40;;;;;;;2.86;100.00;103113.16;8323290;28;20401;-64
2022/03/19 05:02:13;;;;;;;13.18;7.10;;;;;;;2.67;100.00;103113.50;8321866;28;20162;-64
2022/03/19 05:06:14;;;;;;;14.00;7.97;;;;;;;2.83;100.00;103110.53;8323303;28;20115;-64
2022/03/19 05:11:17;;;;;;;15.10;7.40;;;;;;;2.98;100.00;103126.28;8323488;28;20434;-64
2022/03/19 05:14:34;;;;;;;17.02;8.15;;;;;;;2.68;100.00;103126.84;8323034;28;20131;-64
2022/03/19 05:18:35;;;;;;;17.58;7.97;;;;;;;2.67;100.00;103138.44;8322103;28;20049;-64
2022/03/19 05:22:36;;;;;;;18.08;8.02;;;;;;;2.38;100.00;103132.69;8320714;28;20064;-64
2022/03/19 05:26:36;;;;;;;15.05;8.25;;;;;;;2.27;100.00;103134.66;8322778;28;20033;-64
2022/03/19 05:30:37;;;;;;;21.77;8.50;;;;;;;2.30;100.00;103137.28;8318934;28;20045;-64
2022/03/19 05:34:38;;;;;;;14.73;7.85;;;;;;;2.42;100.00;103139.75;8319931;28;20358;-64
2022/03/19 05:38:39;;;;;;;18.20;7.28;;;;;;;2.11;100.00;103137.59;8322650;28;20037;-64
2022/03/19 05:42:39;;;;;;;19.88;8.63;;;;;;;2.25;100.00;103141.81;8322557;28;20569;-64
2022/03/19 05:46:40;;;;;;;19.35;8.52;;;;;;;2.38;100.00;103138.03;8321912;28;20122;-64
2022/03/19 05:50:40;;;;;;;14.93;8.43;;;;;;;2.25;100.00;103135.59;8322192;28;20067;-64
2022/03/19 05:54:40;;;;;;;22.25;9.57;;;;;;;2.32;100.00;103143.50;8321912;28;20052;-64
2022/03/19 05:58:41;;;;;;;25.20;8.60;;;;;;;2.43;100.00;103136.19;8321695;28;20457;-64
2022/03/19 06:02:42;;;;;;;23.67;9.30;;;;;;;2.51;100.00;103139.63;8319049;28;20041;-64
2022/03/19 06:06:43;;;;;;;19.73;8.23;;;;;;;2.71;100.00;103132.13;8319721;28;20069;-64
2022/03/19 06:10:43;;;;;;;16.20;7.75;;;;;;;3.09;100.00;103137.66;8320180;28;20470;-64
2022/03/19 06:14:43;;;;;;;17.83;8.48;;;;;;;2.96;100.00;103133.44;8321341;28;20038;-64
2022/03/19 06:18:46;;;;;;;18.60;8.23;;;;;;;3.23;100.00;103138.25;8321136;28;20120;-64
2022/03/19 06:22:47;;;;;;;18.92;8.23;;;;;;;3.50;99.80;103121.66;8320738;28;20498;-64
2022/03/19 06:26:48;;;;;;;17.35;8.35;;;;;;;3.88;98.55;103132.41;8318211;28;20410;-64
2022/03/19 06:30:48;;;;;;;17.48;8.10;;;;;;;4.06;96.93;103134.66;8320955;28;20496;-64
2022/03/19 06:34:49;;;;;;;18.45;7.60;;;;;;;4.17;95.45;103136.22;8318472;28;20375;-64
2022/03/19 06:38:49;;;;;;;16.63;6.93;;;;;;;4.51;95.04;103132.66;8302386;28;20517;-64
2022/03/19 06:42:49;;;;;;;14.82;7.22;;;;;;;4.80;94.30;103129.25;8320758;28;20041;-64
2022/03/19 06:46:50;;;;;;;15.18;7.63;;;;;;;5.25;91.36;103128.88;8319413;28;20041;-64
2022/03/19 06:50:53;;;;;;;14.10;6.63;;;;;;;5.46;91.17;103132.78;8319192;28;20494;-64
2022/03/19 06:54:54;;;;;;;15.10;6.95;;;;;;;5.90;91.27;103129.66;8319019;28;20064;-64
2022/03/19 06:58:54;;;;;;;11.30;6.40;;;;;;;6.09;89.96;103130.84;8317967;28;20119;-64
2022/03/19 07:02:55;;;;;;;15.35;6.90;;;;;;;6.32;88.30;103127.44;8317982;28;20046;-64
2022/03/19 07:06:55;;;;;;;13.38;6.43;;;;;;;6.58;87.82;103124.75;8314338;28;20045;-64
2022/03/19 07:10:56;;;;;;;15.60;6.63;;;;;;;7.02;87.29;103122.28;8319439;28;20465;-64
2022/03/19 07:14:56;;;;;;;12.18;5.38;;;;;;;7.43;87.84;103123.47;8318520;28;20126;-64
2022/03/19 07:18:57;;;;;;;15.85;6.55;;;;;;;7.79;85.61;103122.97;8319628;28;20040;-64
2022/03/19 07:23:02;;;;;;;14.68;5.32;;;;;;;8.06;83.94;103129.94;8326238;28;20349;-64
2022/03/19 07:27:03;;;;;;;10.20;5.47;;;;;;;8.36;81.87;103125.19;8328568;28;20099;-64
2022/03/19 07:31:03;;;;;;;9.13;5.05;;;;;;;8.67;80.89;103119.38;8311427;28;20136;-64
2022/03/19 07:35:06;;;;;;;10.45;5.40;;;;;;;8.93;79.48;103111.03;8311503;28;20041;-64
2022/03/19 07:39:06;;;;;;;13.90;4.72;;;;;;;9.12;78.68;103120.09;8318062;28;20048;-64
2022/03/19 07:43:08;;;;;;;13.77;4.78;;;;;;;9.33;77.89;103108.34;8318229;28;20374;-64
2022/03/19 07:47:08;;;;;;;14.18;5.85;;;;;;;9.39;76.98;103116.16;8317460;28;20067;-64
2022/03/19 07:51:09;;;;;;;14.20;5.47;;;;;;;9.60;77.46;103115.16;8317618;28;20037;-64
2022/03/19 07:55:09;;;;;;;10.40;5.35;;;;;;;9.83;76.42;103117.69;8310688;28;20040;-64
2022/03/19 07:59:10;;;;;;;14.75;5.65;;;;;;;9.96;74.86;103118.84;8314882;28;20097;-64
2022/03/19 08:03:10;;;;;;;13.35;4.55;;;;;;;10.02;73.48;103113.16;8313767;28;20045;-64
2022/03/19 08:07:11;;;;;;;12.63;4.53;;;;;;;10.17;73.66;103109.75;8308856;28;20149;-64
2022/03/19 08:11:11;;;;;;;14.95;4.85;;;;;;;10.25;74.17;103104.84;8314674;28;20037;-64
2022/03/19 08:15:12;;;;;;;16.17;5.63;;;;;;;10.50;73.51;103108.09;8306637;28;20037;-64
2022/03/19 08:19:14;;;;;;;15.07;4.10;;;;;;;10.65;70.40;103099.19;8313508;28;20051;-64
2022/03/19 08:23:15;;;;;;;10.60;4.43;;;;;;;10.63;70.85;103100.19;8313720;28;20092;-65
2022/03/19 08:27:16;;;;;;;10.95;4.40;;;;;;;10.76;70.12;103096.78;8311753;28;20084;-64
2022/03/19 08:31:17;;;;;;;10.65;5.25;;;;;;;10.92;70.08;103097.75;8312677;28;20037;-64
2022/03/19 08:35:17;;;;;;;7.68;4.28;;;;;;;10.96;68.83;103098.47;8310721;28;20482;-64
2022/03/19 08:40:18;;;;;;;13.40;5.00;;;;;;;11.24;69.02;103094.22;8306185;28;20041;-65
2022/03/19 08:43:38;;;;;;;11.65;5.07;;;;;;;11.23;68.04;103097.88;8310230;28;20065;-65
2022/03/19 08:47:38;;;;;;;11.70;5.40;;;;;;;11.52;68.38;103099.91;8310512;28;20049;-65
2022/03/19 08:51:40;;;;;;;14.00;5.70;;;;;;;11.44;66.43;103102.13;8309576;28;20129;-65
2022/03/19 08:55:41;;;;;;;10.95;5.10;;;;;;;11.66;67.00;103097.34;8293541;28;20041;-65
2022/03/19 08:59:41;;;;;;;11.02;5.22;;;;;;;11.77;67.50;103094.91;8308632;28;20097;-65
2022/03/19 09:03:42;;;;;;;10.15;5.00;;;;;;;12.06;66.04;103084.25;8322396;28;20491;-65
2022/03/19 09:07:42;;;;;;;10.38;4.43;;;;;;;12.16;64.94;103096.31;8315337;28;20060;-65
2022/03/19 09:11:43;;;;;;;10.45;4.90;;;;;;;12.23;65.37;103089.59;8306553;28;20045;-65
2022/03/19 09:15:43;;;;;;;18.08;5.03;;;;;;;12.13;63.68;103080.25;8307852;28;20053;-65
2022/03/19 09:19:44;;;;;;;9.18;4.50;;;;;;;12.10;62.48;103081.28;8309851;28;20091;-65
2022/03/19 09:23:45;;;;;;;8.52;4.60;;;;;;;12.32;63.03;103073.66;8306062;28;20049;-65
2022/03/19 09:27:46;;;;;;;7.85;3.78;;;;;;;12.98;60.91;103071.47;8306762;28;20060;-65
2022/03/19 09:31:47;;;;;;;15.25;5.53;;;;;;;14.52;59.57;103063.19;8304167;28;20128;-65
2022/03/19 09:35:48;;;;;;;11.65;4.40;;;;;;;15.51;57.17;103056.16;8306243;28;20132;-64
2022/03/19 09:39:49;;;;;;;9.60;5.22;;;;;;;16.21;55.08;103045.50;8307781;28;20513;-65
2022/03/19 09:43:50;;;;;;;10.43;5.15;;;;;;;16.26;53.81;103043.31;8310406;28;20045;-65
2022/03/19 09:47:51;;;;;;;10.63;5.15;;;;;;;16.88;53.67;103036.63;8315422;28;20110;-65
2022/03/19 09:51:54;;;;;;;9.10;4.68;;;;;;;17.39;51.08;103029.78;8319727;28;20041;-65
2022/03/19 09:55:57;;;;;;;11.80;4.40;;;;;;;17.15;51.61;103021.69;8316143;28;20052;-64
2022/03/19 09:59:58;;;;;;;8.05;4.22;;;;;;;17.24;51.86;103011.88;8316768;28;20094;-64
2022/03/19 10:04:01;;;;;;;9.15;3.80;;;;;;;17.56;50.03;103007.41;8314631;28;20052;-64
2022/03/19 10:09:03;;;;;;;9.10;4.07;;;;;;;17.38;51.00;103017.06;8310056;28;20046;-64
2022/03/19 10:12:27;;;;;;;11.10;4.15;;;;;;;17.81;49.65;102992.59;8315677;28;20292;-64
2022/03/19 10:16:28;;;;;;;10.73;4.00;;;;;;;17.74;49.96;102984.00;8315121;28;20042;-64
2022/03/19 10:20:34;;;;;;;11.68;4.60;;;;;;;17.65;50.60;102973.81;8314814;28;20134;-65
2022/03/19 10:24:37;;;;;;;7.85;4.07;;;;;;;18.53;47.37;102965.34;8313442;28;20061;-65
2022/03/19 10:28:37;;;;;;;14.45;5.20;;;;;;;19.02;46.45;102956.44;8315539;28;20371;-65
2022/03/19 10:32:39;;;;;;;6.50;3.67;;;;;;;19.06;46.44;102953.28;8315454;28;20046;-65
2022/03/19 10:36:42;;;;;;;9.25;4.10;;;;;;;19.32;45.89;102943.66;8311246;28;20670;-65
2022/03/19 10:40:47;;;;;;;6.35;2.80;;;;;;;19.15;43.06;102938.75;8275678;28;20037;-65
2022/03/19 10:44:48;;;;;;;7.97;2.95;;;;;;;18.83;41.94;102931.66;8305013;28;20049;-65
2022/03/19 10:48:52;;;;;;;5.38;2.88;;;;;;;18.71;39.31;102930.88;8301551;28;20049;-64
2022/03/19 10:52:53;;;;;;;6.70;2.20;;;;;;;18.06;40.05;102924.72;8319765;28;20099;-65
2022/03/19 10:56:53;;;;;;;7.93;2.20;;;;;;;18.27;40.29;102911.91;8306198;28;20508;-65
2022/03/19 11:00:55;;;;;;;4.50;2.10;;;;;;;19.29;39.17;102902.78;8307239;28;20029;-65
2022/03/19 11:04:59;;;;;;;7.13;2.15;;;;;;;19.06;39.94;102895.69;8308968;28;20053;-65
2022/03/19 11:09:05;;;;;;;3.20;1.97;;;;;;;19.71;37.71;102894.34;8308520;28;20048;-65
2022/03/19 11:13:08;;;;;;;5.72;2.15;;;;;;;20.05;36.46;102885.56;8303581;28;20072;-65
2022/03/19 11:17:32;;;;;;;2.85;1.90;;;;;;;19.79;36.69;102872.56;8296876;28;20046;-65
2022/03/19 11:21:33;;;;;;;3.45;2.25;;;;;;;20.15;36.83;102864.47;8306279;28;20041;-65
2022/03/19 11:25:54;;;;;;;6.25;2.35;;;;;;;20.31;36.65;102852.91;8312292;28;20149;-65
2022/03/19 11:29:58;;;;;;;3.40;1.92;;;;;;;19.66;35.75;102849.97;8299641;28;20119;-65
2022/03/19 11:34:16;;;;;;;6.45;2.20;;;;;;;19.11;35.71;102833.09;8305840;28;20096;-65
2022/03/19 11:38:20;;;;;;;6.32;2.17;;;;;;;19.81;34.89;102827.47;8301108;28;20068;-65
2022/03/19 11:42:28;;;;;;;7.57;2.22;;;;;;;19.57;35.69;102818.75;8299174;28;20072;-65
2022/03/19 11:46:48;;;;;;;3.17;1.58;;;;;;;20.10;34.70;102810.97;8304453;28;20524;-65
2022/03/19 11:50:49;;;;;;;7.05;2.22;;;;;;;20.40;33.77;102788.81;8300439;28;20145;-65
2022/03/19 11:55:08;;;;;;;4.85;2.00;;;;;;;20.74;33.54;102781.75;8300062;28;20041;-65
2022/03/19 11:59:13;;;;;;;3.67;1.65;;;;;;;20.55;34.41;102773.56;8299249;28;20041;-65
2022/03/19 12:03:17;;;;;;;3.53;1.58;;;;;;;20.73;33.54;102769.00;8298726;28;20108;-65
2022/03/19 12:07:41;;;;;;;;;;;;;;;20.84;33.88;102749.56;8299984;28;20604;-65
2022/03/19 12:12:21;;;;;;;2.88;1.67;;;;;;;21.31;33.06;102734.66;8299746;28;20008;-65
2022/03/19 12:16:39;;;;;;;3.53;1.23;;;;;;;20.89;33.86;102727.97;8300341;28;20041;-65
2022/03/19 12:20:43;;;;;;;3.42;0.90;;;;;;;21.04;32.85;102720.94;8300665;28;20120;-65
2022/03/19 12:24:47;;;;;;;3.58;1.45;;;;;;;21.05;32.03;102711.69;8300244;28;20242;-65
2022/03/19 12:29:00;;;;;;;3.00;1.17;;;;;;;20.27;32.04;102711.31;8294201;28;20053;-65
2022/03/19 12:33:01;;;;;;;1.88;1.02;;;;;;;20.33;31.19;102697.84;8291976;28;20045;-65
2022/03/19 12:37:03;;;;;;;2.63;0.70;;;;;;;20.74;31.20;102685.50;8298801;28;20124;-65
2022/03/19 12:41:35;;;;;;;2.17;0.70;;;;;;;20.46;29.34;102659.88;8304441;28;20064;-65
2022/03/19 12:45:42;;;;;;;2.97;0.60;;;;;;;20.04;31.10;102663.22;8295365;28;20046;-65
2022/03/19 12:49:51;;;;;;;2.50;0.60;;;;;;;19.56;30.67;102663.34;8295478;28;20573;-65
2022/03/19 12:53:55;;;;;;;2.63;0.73;;;;;;;18.91;31.27;102658.53;8296165;28;20061;-65
2022/03/19 12:57:59;;;;;;;4.43;0.85;;;;;;;17.46;32.88;102634.41;8295649;28;20045;-65
2022/03/19 13:01:59;;;;;;;6.38;1.30;;;;;;;16.06;33.71;102631.81;8307006;28;20792;-65
2022/03/19 13:06:00;;;;;;;1.10;0.55;;;;;;;15.64;35.88;102625.22;8286844;28;20422;-65
2022/03/19 13:10:00;;;;;;;4.25;0.73;;;;;;;15.43;35.53;102616.88;8298299;28;20391;-65
2022/03/19 13:14:02;;;;;;;3.22;0.70;;;;;;;15.20;35.14;102609.63;8320800;28;20046;-64
2022/03/19 13:18:03;;;;;;;1.95;0.60;;;;;;;15.25;33.85;102607.38;8304537;28;20053;-65
2022/03/19 13:22:05;;;;;;;1.63;0.52;;;;;;;15.18;35.61;102600.69;8306464;28;20064;-64
2022/03/19 13:26:06;;;;;;;1.52;0.57;;;;;;;14.93;33.62;102603.56;8306369;28;20041;-65
2022/03/19 13:30:12;;;;;;;1.85;0.50;;;;;;;15.12;35.31;102590.25;8306459;28;20041;-65
2022/03/19 13:34:26;;;;;;;3.03;0.55;;;;;;;14.95;34.73;102590.69;8302954;28;20412;-64
2022/03/19 13:38:34;;;;;;;2.08;0.70;;;;;;;14.94;35.17;102569.00;8302144;28;22099;-65
2022/03/19 13:42:38;;;;;;;0.73;0.50;;;;;;;14.94;35.79;102558.09;8299661;28;20111;-65
2022/03/19 13:46:39;;;;;;;1.17;0.50;;;;;;;14.78;33.83;102563.88;8303939;28;20049;-64
2022/03/19 13:50:54;;;;;;;3.28;0.60;;;;;;;14.59;35.00;102563.56;8304079;28;20362;-64
2022/03/19 13:54:58;;;;;;;3.22;0.73;;;;;;;14.55;35.72;102553.03;8304359;28;20041;-64
2022/03/19 13:59:01;;;;;;;1.83;0.85;;;;;;;14.49;35.73;102540.72;8303149;28;20119;-64
2022/03/19 14:07:32;;;;;;;3.60;0.60;;;;;;;14.29;35.16;102527.75;8321747;27;20811;-63
2022/03/19 14:11:38;;;;;;;3.10;0.63;;;;;;;14.28;35.70;102520.59;8325865;28;20040;-63
2022/03/19 14:15:42;;;;;;;7.13;0.90;;;;;;;14.18;35.33;102511.34;8325510;28;20052;-63
2022/03/19 14:19:42;;;;;;;2.35;0.63;;;;;;;14.31;35.79;102511.31;8325226;28;20037;-63
2022/03/19 14:23:45;;;;;;;2.13;0.50;;;;;;;14.21;36.12;102502.94;8318996;28;20484;-63
2022/03/19 14:27:47;;;;;;;1.65;0.57;;;;;;;14.14;35.03;102498.94;8322097;28;20291;-63
2022/03/19 14:31:48;;;;;;;2.17;0.45;;;;;;;13.99;34.70;102486.50;8327628;28;20045;-63
2022/03/19 14:35:58;;;;;;;1.25;0.57;;;;;;;13.92;34.35;102487.94;8322168;28;20052;-63
2022/03/19 14:39:59;;;;;;;3.85;0.60;;;;;;;13.81;34.35;102482.41;8325004;28;20045;-63
2022/03/19 14:44:00;;;;;;;0.80;0.40;;;;;;;14.00;34.40;102461.03;8325342;28;20476;-63
2022/03/19 14:48:01;;;;;;;2.58;0.60;;;;;;;14.02;34.94;102464.50;8327537;28;20700;-63
2022/03/19 14:52:01;;;;;;;3.42;0.60;;;;;;;14.01;34.12;102454.63;8320305;28;20421;-63
2022/03/19 14:56:02;;;;;;;3.85;0.50;;;;;;;13.93;34.47;102459.75;8324594;28;20627;-63
2022/03/19 15:00:03;;;;;;;2.15;0.73;;;;;;;13.94;34.43;102452.47;8323581;28;20045;-63
2022/03/19 15:04:04;;;;;;;2.38;0.50;;;;;;;13.88;34.55;102440.22;8328276;28;20100;-63
2022/03/19 15:08:04;;;;;;;2.97;0.45;;;;;;;13.83;35.14;102445.13;8327744;28;20953;-63
2022/03/19 15:12:07;;;;;;;1.85;0.60;;;;;;;13.72;35.84;102439.59;8327702;28;20041;-63
2022/03/19 15:16:08;;;;;;;1.65;0.30;;;;;;;13.76;34.20;102438.41;8302195;28;20038;-63
2022/03/19 15:20:10;;;;;;;1.15;0.40;;;;;;;13.64;34.33;102437.44;8297445;28;20042;-63
2022/03/19 15:24:11;;;;;;;0.70;0.30;;;;;;;13.58;33.52;102421.59;8302120;28;20058;-63
2022/03/19 15:28:11;;;;;;;1.70;0.35;;;;;;;13.56;33.12;102417.25;8299029;28;20041;-63
2022/03/19 15:32:11;;;;;;;2.55;0.40;;;;;;;13.58;34.26;102416.16;8305477;28;20391;-63
2022/03/19 15:36:12;;;;;;;2.53;0.57;;;;;;;13.60;34.16;102424.19;8284060;28;20107;-63
2022/03/19 15:40:13;;;;;;;2.38;0.60;;;;;;;13.54;34.50;102419.22;8297628;28;20042;-63
2022/03/19 15:44:13;;;;;;;1.98;0.40;;;;;;;13.48;34.76;102419.69;8329058;28;20406;-63
2022/03/19 15:48:13;;;;;;;2.75;0.70;;;;;;;13.39;35.33;102417.66;8302542;28;20116;-63
2022/03/19 15:52:14;;;;;;;2.08;0.50;;;;;;;13.41;35.80;102399.38;8301875;28;20477;-63
2022/03/19 15:56:14;;;;;;;9.50;0.82;;;;;;;13.40;35.46;102406.69;8302729;28;20470;-63
2022/03/19 16:00:17;;;;;;;3.70;0.65;;;;;;;13.42;37.73;102412.00;8300786;28;21046;-63
2022/03/19 16:04:17;;;;;;;3.03;0.77;;;;;;;13.43;36.49;102400.13;8302979;28;20569;-63
2022/03/19 16:08:17;;;;;;;4.68;0.70;;;;;;;13.55;37.49;102391.06;8297106;28;20589;-63
2022/03/19 16:12:19;;;;;;;3.53;0.60;;;;;;;13.54;37.96;102397.47;8295506;28;20045;-63
2022/03/19 16:16:20;;;;;;;4.68;1.15;;;;;;;13.23;36.56;102415.16;8299529;28;20041;-63
2022/03/19 16:20:20;;;;;;;2.33;0.70;;;;;;;12.92;35.80;102420.16;8300166;28;20037;-63
2022/03/19 16:24:21;;;;;;;3.45;0.60;;;;;;;12.59;36.66;102430.72;8301179;28;20041;-63
2022/03/19 16:28:21;;;;;;;2.20;0.77;;;;;;;12.47;37.48;102412.56;8302069;28;20423;-63
2022/03/19 16:32:23;;;;;;;2.22;0.77;;;;;;;12.36;37.68;102415.13;8303025;28;20391;-63
2022/03/19 16:36:23;;;;;;;2.78;0.57;;;;;;;12.23;38.42;102406.13;8302541;28;20052;-63
2022/03/19 16:40:23;;;;;;;2.50;0.80;;;;;;;12.20;38.80;102411.75;8299389;28;20065;-63
2022/03/19 16:44:24;;;;;;;3.60;0.85;;;;;;;12.16;39.86;102407.47;8300029;28;20126;-63
2022/03/19 16:48:25;;;;;;;2.63;0.60;;;;;;;12.10;39.71;102402.50;8299087;28;20136;-63
2022/03/19 16:52:25;;;;;;;5.72;0.85;;;;;;;11.99;41.00;102411.38;8301726;28;20051;-63
2022/03/19 16:56:26;;;;;;;3.80;1.00;;;;;;;11.73;42.29;102415.81;8299028;28;20092;-63
2022/03/19 17:00:26;;;;;;;4.85;1.02;;;;;;;11.60;42.52;102423.00;8301247;28;20148;-63
2022/03/19 17:04:27;;;;;;;3.47;1.35;;;;;;;11.38;44.20;102425.34;8297504;28;20053;-63
2022/03/19 17:08:27;;;;;;;5.60;1.08;;;;;;;11.34;44.17;102439.16;8312801;28;20247;-63
2022/03/19 17:12:28;;;;;;;4.97;0.82;;;;;;;11.16;44.68;102430.38;8298897;28;20057;-63
2022/03/19 17:16:28;;;;;;;3.47;1.20;;;;;;;11.04;44.78;102431.16;8293778;28;20064;-63
2022/03/19 17:20:28;;;;;;;4.70;0.98;;;;;;;10.88;45.32;102440.34;8298888;28;20163;-63
2022/03/19 17:24:29;;;;;;;3.88;1.08;;;;;;;10.88;45.48;102443.06;8296715;28;20118;-63
2022/03/19 17:28:29;;;;;;;4.15;1.27;;;;;;;10.81;45.86;102439.88;8301778;28;20540;-63
2022/03/19 17:32:30;;;;;;;4.22;0.90;;;;;;;10.75;45.76;102440.25;8303088;28;20541;-63
2022/03/19 17:36:30;;;;;;;3.40;1.15;;;;;;;10.60;46.70;102446.59;8298998;28;20494;-63
2022/03/19 17:40:31;;;;;;;3.58;1.17;;;;;;;10.49;47.58;102438.25;8296764;28;20033;-63
2022/03/19 17:44:31;;;;;;;5.85;1.42;;;;;;;10.49;47.90;102443.66;8300519;28;20052;-63
2022/03/19 17:48:32;;;;;;;6.68;1.95;;;;;;;10.35;48.42;102432.84;8293585;28;20525;-63
2022/03/19 17:52:32;;;;;;;9.40;1.83;;;;;;;10.43;48.63;102437.78;8293961;28;20137;-62
2022/03/19 17:56:33;;;;;;;5.88;1.30;;;;;;;10.34;49.50;102432.94;8288602;28;20702;-63
2022/03/19 18:00:33;;;;;;;6.80;1.10;;;;;;;10.34;49.74;102450.00;8298977;28;20386;-62
2022/03/19 18:04:34;;;;;;;3.08;1.30;;;;;;;10.25;50.40;102456.00;8298471;28;20045;-63
2022/03/19 18:08:35;;;;;;;5.00;1.13;;;;;;;10.12;51.13;102452.25;8301370;28;20425;-63
2022/03/19 18:12:36;;;;;;;5.03;1.38;;;;;;;9.95;51.87;102452.34;8298604;28;20144;-63
2022/03/19 18:16:36;;;;;;;8.80;1.30;;;;;;;9.85;51.21;102459.22;8299921;28;20053;-63
2022/03/19 18:20:36;;;;;;;6.07;1.60;;;;;;;9.85;50.94;102464.63;8293293;28;20118;-63
2022/03/19 18:24:37;;;;;;;4.88;1.23;;;;;;;9.78;51.13;102456.03;8293947;28;20305;-63
2022/03/19 18:28:37;;;;;;;5.43;1.30;;;;;;;9.74;50.98;102449.06;8298024;28;20700;-63
2022/03/19 18:32:40;;;;;;;2.08;1.10;;;;;;;9.63;51.49;102461.41;8285776;28;20329;-63
2022/03/19 18:36:41;;;;;;;7.43;1.02;;;;;;;9.52;51.91;102469.28;8286095;28;20041;-62
2022/03/19 18:40:42;;;;;;;5.18;1.13;;;;;;;9.45;52.43;102462.44;8294742;28;20180;-63
2022/03/19 18:44:43;;;;;;;1.95;0.98;;;;;;;9.47;52.74;102461.44;8296391;28;20196;-63
2022/03/19 18:48:43;;;;;;;5.55;1.60;;;;;;;9.36;53.19;102474.63;8291457;28;20120;-63